AirNav   Everest Fuels
 
 1083 users online  

MD70 Flying Acres Airport
Sudlersville, Maryland, USA

GOING TO SUDLERSVILLE?


FAA INFORMATION EFFECTIVE 16 JUNE 2022

Location

FAA Identifier: MD70
Lat/Long: 39-10-52.3980N 075-54-31.7790W
39-10.873300N 075-54.529650W
39.1812217,-75.9088275
(estimated)
Elevation: 70 ft. / 21 m (estimated)
Variation: 10W (1985)
From city: 2 miles W of SUDLERSVILLE, MD
Time zone: UTC -4 (UTC -5 during Standard Time)
Zip code: 21668

Airport Operations

Airport use: Private use. Permission required prior to landing
Activation date: 06/1974
Control tower: no
ARTCC: WASHINGTON CENTER
FSS: LEESBURG FLIGHT SERVICE STATION
Attendance: UNATNDD
Wind indicator: yes
Segmented circle: no

Airport Communications

WX AWOS-3 at 33N (15 nm E): 120.125 (302-735-9754)

Airport Services

Airframe service: NONE
Powerplant service: NONE

Runway Information

Runway 15/33

Dimensions: 2200 x 75 ft. / 671 x 23 m
Surface: turf
RUNWAY 15  RUNWAY 33
Traffic pattern: leftleft
Obstructions: treespline

Airport Ownership and Management from official FAA records

Ownership: Privately-owned
Owner: ROBERT BASTIANELLI
2521 SUDLERSVILLE RD
SUDLERSVILLE, MD 21668
Phone (410) 438-3360
Manager: ROBERT BASTIANELLI
2521 SUDLERSVILLE RD
SUDLERSVILLE, MD 21668
Phone (410) 438-3360

Additional Remarks

FOR CD CTC POTOMAC APCH AT 866-429-5882.

Instrument Procedures

There are no published instrument procedures at MD70.

Some nearby airports with instrument procedures:

KRJD - Gooden Airpark (13 nm S)
33N - Delaware Airpark (15 nm E)
KDOV - Dover Air Force Base (21 nm E)
KAPG - Phillips Army Airfield (21 nm NW)
KEDG - Weide Army Heliport (Aberdeen Proving Ground) (22 nm NW)
 
Loc | Ops | Rwys | IFR | FBO | Links
Com | Nav | Svcs | Stats | Notes
Area around MD70 (Flying Acres Airport)
 
Road maps at: MapQuest Bing Google
 
Aerial photo
No photo
 
Sectional chart

 
Airport distance calculator
Flying to Flying Acres Airport? Find the distance to fly.

From to MD70

Sunrise and sunset
Times for 02-Jul-2022
 Local
(UTC-4)
 Zulu
(UTC)
Morning civil twilight05:1009:10
Sunrise05:4309:43
Sunset20:3300:33
Evening civil twilight21:0501:05

Current date and time
Zulu (UTC)  02-Jul-2022 15:40:34
Local (UTC-4)  02-Jul-2022 11:40:34
 
METAR
K33N 
15nm E 
021515Z AUTO 22008G13KT 10SM CLR 29/22 A2997 RMK A01
KAPG 
19nm NW 
011858Z 19011KT 9SM BKN040 BKN120 30/23 A2996 RMK AO2A LAST SLP148 T03010226 $
KDOV 
21nm E 
021456Z AUTO 20011KT 10SM FEW210 30/21 A2994 RMK AO2 SLP142 T02980209 55004
KESN 
24nm S 
021445Z 22009KT 10SM SCT020 29/27 A3001
KMTN 
25nm W 
021454Z 13006KT 10SM CLR 28/23 A2997
TAF
KDOV 
21nm E 
020800Z 0208/0314 21012G18KT 9999 OVC130 QNH2993INS BECMG 0211/0212 22012G20KT 9999 SCT060 BKN100 QNH2995INS TEMPO 0212/0216 8000 -SHRA BECMG 0215/0216 21012KT 9999 SCT030 BKN050 BKN100 QNH2992INS BECMG 0221/0222 22009KT 8000 -SHRA BKN030 BKN050 QNH2991INS BECMG 0223/0224 22009KT 3200 -TSRA OVC040CB QNH2992INS BECMG 0305/0306 25009KT 9999 NSW BKN010 OVC030 QNH2995INS BECMG 0309/0310 02006KT 8000 -SHRA BKN010 OVC030 QNH3000INS TX32/0220Z TN24/0210Z
KMTN 
25nm W 
021125Z 0212/0312 16005KT P6SM BKN130 FM021300 21008G16KT P6SM VCSH FEW050 SCT200 FM021900 17008G16KT P6SM -SHRA VCTS BKN050CB BKN130 FM030000 VRB04KT 6SM -SHRA BKN050 BKN130 FM030300 VRB03KT 5SM BR BKN050 BKN200 FM030900 34005KT P6SM SCT050 BKN130
NOTAMs
Click for the latest NOTAMs
NOTAMs are issued by the DoD/FAA and will open in a separate window not controlled by AirNav.

 

 
 

Would you like to see your business listed on this page?

 If your business provides an interesting product or service to pilots, flight crews, aircraft, or users of the Flying Acres Airport, you should consider listing it here.  To start the listing process, click on the button below
 
Add a business
 

Other Pages about Flying Acres Airport

Update a link
 
Copyright © AirNav, LLC. All rights reserved. Privacy Policy  Contact